Main page
METAR-TAF:

METAR-TAF

Airports :

Irkutsk, Russia

International Airport Irkutsk

latitude: 52-16N, longitude: 104-19E, elevation: 513 m

Current weather observation

The report was made 24 minutes ago, at 10:00 UTC
Wind 8 kt from the Northwest, varying between West and North
Temperature 19°C
Humidity 28%
Pressure 1014 hPa
Visibility 10 km or more
no clouds below 1500 m and no cumulonimbus

METAR: UIII 281000Z 31004MPS 270V350 CAVOK 19/00 Q1014 R12/CLRD60 NOSIG RMK QFE718/0957

Time: 18:24 (10:24 UTC)

Forecast

The report was made 2 hours and 24 minutes ago, at 08:00 UTC
Forecast valid from 28 at 09 UTC to 29 at 09 UTC
Wind 6 kt from the South/Southwest
Visibility 10 km or more
Scattered clouds at a height of 2000 ft, Cumulonimbus.

TAF: UIII 280800Z 2809/2909 20003MPS 9999 SCT020CB

Weather observations and forecasts of more than 4000 airports (METAR and TAF reports).

The available stations are represented by yellow and red dots on the map.

Hover mouse over dot to see the name of the station.

Then click to see weather observations and forecasts.

To change the map : click on the green buttons with a black cross to zoom in, on the green button with a dash to zoom out, or on the green arrows for adjacent maps.


METAR-TAF: